Virtual Norwegian is not affiliated with Norwegian Air Shuttle in any way.
If you are looking for the real "Norwegian", or you wish to book Norwegian flights, please visit Norwegian.com


We use cookies to ensure you get the best experience on our website.   ACCEPT

KLAX - LAX - Los Angeles (Los Angeles)

General Info Alternate Airport
ICAO: KLAX Elevation: 126 ft ICAO: KOAK
IATA: LAX Country: United States IATA: OAK
City: Los Angeles Charts: Log in to view charts City: Oakland
Name: Los Angeles Hub: No Name Metropolitan Oakland Intl
General Info
ICAO: KLAX
IATA: LAX
City: Los Angeles
Name: Los Angeles
Elevation: 126 ft
Country: United States
Charts: Log in to view charts
Hub: No
 
Alternate Airport
ICAO: KOAK
IATA: OAK
City: Oakland
Name: Metropolitan Oakland Intl

Weather
210353Z 24009KT 10SM CLR 22/16 A2985 RMK AO2 SLP104 T02170156
Weather
210353Z 24009KT 10SM CLR 22/16 A2985 RMK AO2 SLP104 T02170156

Runway Info
06L
Length ILS/LOC Course
2720 m 108.50 069
06R
Length ILS/LOC Course
3135 m 111.70 069
07L
Length ILS/LOC Course
3685 m 111.10 069
07R
Length ILS/LOC Course
3382 m 109.90 069
24L
Length ILS/LOC Course
3135 m 111.70 250
24R
Length ILS/LOC Course
2720 m 108.50 251
25L
Length ILS/LOC Course
3382 m 109.90 251
25R
Length ILS/LOC Course
3685 m 111.10 250

NOTAMs
NOTAMs currently unavailable.
NOTAMs
NOTAMs currently unavailable

Route map
Airport
Airport (hub)